CYZW

Teslin Airport

Teslin, , Canada
METAR CYZW 151800Z 00000KT 10SM VCSH BKN045 OVC100 M17/M21 A2982 RMK SC6AC2 SLP164
Observed Flight Rules
Feb-15 @ 18:00 UTC (an hour ago) Visual Flight Rules
Visibility Clouds
10 miles
  • Broken at 4,500' AGL
  • Overcast at 10,000' AGL
Temperatures Readings
Current -17°C / 1°F
Dewpoint -21°C / -6°F
Humidity 71%
Altimeter 29.82" Hg
Pressure 1016.4 hPa
Elevation 705
METAR CYZW 151800Z 00000KT 10SM VCSH BKN045 OVC100 M17/M21 A2982 RMK SC6AC2 SLP164
Observed Flight Rules
Feb-15 @ 18:00 UTC
(an hour ago)
VFR
Clouds
  • Broken at 4,500' AGL
  • Overcast at 10,000' AGL
Temperature Dewpoint
-17°C / 1°F -21°C / -6°F
Humidity Altimeter Pressure
71% 29.82" Hg 1016.4 hPa